Terminal Aerodrome Forecast
Issued by NWS

Home | Current Version | Previous Version | Graphics & Text | Print | Product List | Glossary On
Versions: 1 2 3 4 5 6 7 8 9 10 11 12 13 14 15 16 17 18 19 20 21 22
089
FTUS43 KBIS 180926 AAA
TAFDIK
TAF AMD
KDIK 180926Z 1809/1906 03007KT 1SM BR OVC002
      TEMPO 1809/1812 1/2SM FG
     FM181200 02010KT 1SM BR OVC003
     FM181600 02011KT P6SM VCSH OVC008
     FM181900 01015G22KT P6SM VCSH OVC011
     FM190100 01013G19KT P6SM OVC010=

USA.gov is the U.S. government's official web portal to all federal, state and local government web resources and services.